createdAt,value
2022-09-10T12:05:34.016Z,50.64
2022-09-10T12:08:15.214Z,52.05
2022-09-10T12:10:49.844Z,48.94
2022-09-10T12:13:17.833Z,48.27
2022-09-10T12:15:52.736Z,48.91
2022-09-10T12:18:25.584Z,49.82
2022-09-10T12:20:59.348Z,51.08
2022-09-10T12:23:31.297Z,52.96
2022-09-10T12:26:00.796Z,52.61
2022-09-10T12:29:04.094Z,51.20
2022-09-10T12:32:05.884Z,49.25
2022-09-10T12:34:33.574Z,48.03
2022-09-10T12:37:21.683Z,46.21
2022-09-10T12:39:50.376Z,45.63
2022-09-10T12:42:33.017Z,43.67
2022-09-10T12:45:01.246Z,46.31
2022-09-10T12:47:50.365Z,46.52
2022-09-10T12:50:29.271Z,47.52
2022-09-10T12:53:34.328Z,48.01
2022-09-10T12:56:15.639Z,48.93
2022-09-10T12:58:59.361Z,49.10
2022-09-10T13:01:41.261Z,48.73
2022-09-10T13:04:24.459Z,48.21
2022-09-10T13:06:55.321Z,47.79
2022-09-10T13:09:29.080Z,47.88
2022-09-10T13:12:03.466Z,48.00
2022-09-10T13:14:36.756Z,47.56
2022-09-10T13:17:05.434Z,48.15
2022-09-10T13:19:51.932Z,47.92
2022-09-10T13:22:58.278Z,47.77
2022-09-10T13:25:36.941Z,46.94
2022-09-10T13:28:43.592Z,47.53
2022-09-10T13:31:19.227Z,47.67
2022-09-10T13:34:09.918Z,48.01
2022-09-10T13:36:48.040Z,47.49
2022-09-10T13:39:46.842Z,48.41
2022-09-10T13:42:35.603Z,52.72
2022-09-10T13:45:31.886Z,62.10
2022-09-10T13:48:02.297Z,67.92
2022-09-10T13:50:37.998Z,67.78
2022-09-10T13:53:10.638Z,67.41
2022-09-10T13:55:39.401Z,66.42
2022-09-10T13:58:16.448Z,64.85
2022-09-10T14:00:53.169Z,64.06
2022-09-10T14:03:23.990Z,63.85
2022-09-10T14:05:54.289Z,61.70
2022-09-10T14:08:26.625Z,61.57
2022-09-10T14:11:00.728Z,59.62
2022-09-10T14:13:36.864Z,58.05
2022-09-10T14:16:08.540Z,59.72
2022-09-10T14:18:43.332Z,58.94
2022-09-10T14:21:14.178Z,57.92
2022-09-10T14:23:45.823Z,57.88
2022-09-10T14:26:23.156Z,54.89
2022-09-10T14:28:55.175Z,54.86
2022-09-10T14:31:35.743Z,53.33
2022-09-10T14:34:26.999Z,53.05
2022-09-10T14:36:54.652Z,52.26
2022-09-10T14:39:23.650Z,52.74
2022-09-10T14:42:10.159Z,52.28
2022-09-10T14:44:43.508Z,52.36
2022-09-10T14:47:16.149Z,52.50
2022-09-10T14:49:47.155Z,52.70
2022-09-10T14:52:15.590Z,53.15
2022-09-10T14:54:43.557Z,53.96
2022-09-10T14:57:15.132Z,54.55
2022-09-10T14:59:46.199Z,54.74
2022-09-10T15:02:17.854Z,53.03
2022-09-10T15:04:45.962Z,52.09
2022-09-10T15:07:13.827Z,52.79
2022-09-10T15:09:41.833Z,57.00
2022-09-10T15:12:14.904Z,85.76
2022-09-10T15:14:44.004Z,78.93
2022-09-10T15:17:15.078Z,74.06
2022-09-10T15:19:42.929Z,72.55
2022-09-10T15:22:20.705Z,73.01
2022-09-10T15:25:08.650Z,73.68
2022-09-10T15:27:37.191Z,72.86
2022-09-10T15:30:07.934Z,72.96
2022-09-10T15:32:35.715Z,72.22
2022-09-10T15:35:04.253Z,71.64
2022-09-10T15:37:31.921Z,72.46
2022-09-10T15:39:59.810Z,72.07
2022-09-10T15:42:27.548Z,72.01
2022-09-10T15:44:55.269Z,71.47
2022-09-10T15:47:24.518Z,69.92
2022-09-10T15:49:53.614Z,69.66
2022-09-10T15:52:23.858Z,69.55
2022-09-10T15:54:51.579Z,69.53
2022-09-10T15:57:19.370Z,69.46
2022-09-10T15:59:47.264Z,68.98
2022-09-10T16:02:15.019Z,68.33
2022-09-10T16:04:44.099Z,68.89
2022-09-10T16:07:11.880Z,68.72
2022-09-10T16:09:40.009Z,67.30
2022-09-10T16:12:07.983Z,69.34
2022-09-10T16:14:35.914Z,69.20
2022-09-10T16:17:10.240Z,68.59
2022-09-10T16:19:38.082Z,69.24
2022-09-10T16:22:08.062Z,68.71
2022-09-10T16:24:35.758Z,68.47
2022-09-10T16:27:03.819Z,68.88
2022-09-10T16:29:32.553Z,68.11
2022-09-10T16:32:00.243Z,68.78
2022-09-10T16:34:27.977Z,68.31
2022-09-10T16:36:57.238Z,67.99
2022-09-10T16:39:26.487Z,68.00
2022-09-10T16:41:55.854Z,68.30
2022-09-10T16:44:24.140Z,67.74
2022-09-10T16:46:52.457Z,67.15
2022-09-10T16:49:20.354Z,66.16
2022-09-10T16:51:49.291Z,66.56
2022-09-10T16:54:19.429Z,65.89
2022-09-10T16:56:50.168Z,66.10
2022-09-10T16:59:20.287Z,65.62
2022-09-10T17:01:49.469Z,65.39
2022-09-10T17:04:21.346Z,64.02
2022-09-10T17:06:51.806Z,66.04
2022-09-10T17:09:19.793Z,65.54
2022-09-10T17:11:49.151Z,64.51
2022-09-10T17:14:16.918Z,64.91
2022-09-10T17:16:44.816Z,64.61
2022-09-10T17:19:15.139Z,65.16
2022-09-10T17:21:44.799Z,65.63
2022-09-10T17:24:14.453Z,65.03
2022-09-10T17:26:42.965Z,64.69
2022-09-10T17:29:14.600Z,65.34
2022-09-10T17:31:43.127Z,65.19
2022-09-10T17:34:12.733Z,65.66
2022-09-10T17:36:41.564Z,65.30
2022-09-10T17:39:09.339Z,65.65
2022-09-10T17:41:38.088Z,65.80
2022-09-10T17:44:06.715Z,65.34
2022-09-10T17:46:36.162Z,65.97
2022-09-10T17:49:04.781Z,65.91
2022-09-10T17:51:37.576Z,66.42
2022-09-10T17:54:05.438Z,66.08
2022-09-10T17:56:33.328Z,66.91
2022-09-10T17:59:03.009Z,66.67
2022-09-10T18:01:32.830Z,66.53
2022-09-10T18:04:02.901Z,65.81
2022-09-10T18:06:32.309Z,65.40
2022-09-10T18:09:01.804Z,66.23
2022-09-10T18:11:31.571Z,66.12
2022-09-10T18:14:00.579Z,65.49
2022-09-10T18:16:31.103Z,65.48
2022-09-10T18:19:00.584Z,66.08
2022-09-10T18:21:33.879Z,66.04
2022-09-10T18:24:03.270Z,65.67
2022-09-10T18:26:33.481Z,66.05
2022-09-10T18:29:03.923Z,67.04
2022-09-10T18:31:34.002Z,66.30
2022-09-10T18:34:05.378Z,66.67
2022-09-10T18:36:35.003Z,64.38
2022-09-10T18:39:04.033Z,63.56
2022-09-10T18:41:33.876Z,61.80
2022-09-10T18:44:04.029Z,59.81
2022-09-10T18:46:33.291Z,61.02
2022-09-10T18:49:02.297Z,61.76
2022-09-10T18:51:31.360Z,64.87
2022-09-10T18:54:02.509Z,66.92
2022-09-10T18:56:32.339Z,68.26
2022-09-10T18:59:04.564Z,68.86
2022-09-10T19:01:33.005Z,68.55
2022-09-10T19:04:03.083Z,67.00
2022-09-10T19:06:33.102Z,67.79
2022-09-10T19:09:05.061Z,67.97
2022-09-10T19:11:34.639Z,68.01
2022-09-10T19:14:04.703Z,68.68
2022-09-10T19:16:34.949Z,68.79
2022-09-10T19:19:05.286Z,68.39
2022-09-10T19:21:35.267Z,68.45
2022-09-10T19:24:04.901Z,68.09
2022-09-10T19:26:34.427Z,67.37
2022-09-10T19:29:03.474Z,67.75
2022-09-10T19:31:33.518Z,66.23
2022-09-10T19:34:03.230Z,67.35
2022-09-10T19:36:33.984Z,66.89
2022-09-10T19:39:02.162Z,66.56
2022-09-10T19:41:31.987Z,66.79
2022-09-10T19:44:00.996Z,66.65
2022-09-10T19:46:29.210Z,65.39
2022-09-10T19:48:59.335Z,66.53
2022-09-10T19:51:28.447Z,67.38
2022-09-10T19:53:56.664Z,66.98
2022-09-10T19:56:27.199Z,66.55
2022-09-10T19:58:56.811Z,66.83
2022-09-10T20:01:26.939Z,67.61
2022-09-10T20:03:56.172Z,66.53
2022-09-10T20:06:25.433Z,66.92
2022-09-10T20:08:53.816Z,66.95
2022-09-10T20:11:23.069Z,66.13
2022-09-10T20:13:56.222Z,66.79
2022-09-10T20:16:26.157Z,66.34
2022-09-10T20:18:54.365Z,65.87
2022-09-10T20:21:24.561Z,65.73
2022-09-10T20:23:55.552Z,65.80
2022-09-10T20:26:25.306Z,66.14
2022-09-10T20:28:56.815Z,65.97
2022-09-10T20:31:26.154Z,65.60
2022-09-10T20:33:56.256Z,66.57
2022-09-10T20:36:25.164Z,65.84
2022-09-10T20:38:53.362Z,65.76
2022-09-10T20:41:21.278Z,66.42
2022-09-10T20:43:51.675Z,65.60
2022-09-10T20:46:23.107Z,66.46
2022-09-10T20:48:51.949Z,65.50
2022-09-10T20:51:20.666Z,65.74
2022-09-10T20:53:49.165Z,65.90
2022-09-10T20:56:18.762Z,65.81
2022-09-10T20:58:47.773Z,67.23
2022-09-10T21:01:18.832Z,66.26
2022-09-10T21:03:49.969Z,66.30
2022-09-10T21:06:19.554Z,65.89
2022-09-10T21:08:48.981Z,65.14
2022-09-10T21:11:18.674Z,65.74
2022-09-10T21:13:48.319Z,65.41
2022-09-10T21:16:17.895Z,65.18
2022-09-10T21:18:54.375Z,65.66
2022-09-10T21:21:25.655Z,66.34
2022-09-10T21:23:55.168Z,65.83
2022-09-10T21:26:25.034Z,65.88
2022-09-10T21:28:53.713Z,66.28
2022-09-10T21:31:21.405Z,66.75
2022-09-10T21:33:50.956Z,65.68
2022-09-10T21:36:20.919Z,65.81
2022-09-10T21:38:49.300Z,65.79
2022-09-10T21:41:19.321Z,64.86
2022-09-10T21:43:48.334Z,64.66
2022-09-10T21:46:16.112Z,64.91
2022-09-10T21:48:44.027Z,65.62
2022-09-10T21:51:14.973Z,64.67
2022-09-10T21:53:43.825Z,65.66
2022-09-10T21:56:13.619Z,64.92
2022-09-10T21:58:42.097Z,66.46
2022-09-10T22:01:11.726Z,66.37
2022-09-10T22:03:40.104Z,67.32
2022-09-10T22:06:09.181Z,67.36
2022-09-10T22:08:40.036Z,67.49
2022-09-10T22:11:09.774Z,68.22
2022-09-10T22:13:38.958Z,69.65
2022-09-10T22:16:07.343Z,70.83
2022-09-10T22:18:37.529Z,71.53
2022-09-10T22:21:06.669Z,73.65
2022-09-10T22:23:36.199Z,71.36
2022-09-10T22:26:06.835Z,70.67
2022-09-10T22:28:35.653Z,68.75
2022-09-10T22:31:08.493Z,66.33
2022-09-10T22:33:36.844Z,67.46
2022-09-10T22:36:12.841Z,68.19
2022-09-10T22:38:40.837Z,68.15
2022-09-10T22:41:10.745Z,71.61
2022-09-10T22:43:39.014Z,72.39
2022-09-10T22:46:07.930Z,73.31
2022-09-10T22:48:37.581Z,73.45
2022-09-10T22:51:08.167Z,74.37
2022-09-10T22:53:36.225Z,74.24
2022-09-10T22:56:04.288Z,73.47
2022-09-10T22:58:34.021Z,74.15
2022-09-10T23:01:04.881Z,73.79
2022-09-10T23:03:35.596Z,73.71
2022-09-10T23:06:06.087Z,72.75
2022-09-10T23:08:34.808Z,73.04
2022-09-10T23:11:11.191Z,73.29
2022-09-10T23:13:40.349Z,73.18
2022-09-10T23:16:15.979Z,72.71
2022-09-10T23:18:47.427Z,72.24
2022-09-10T23:21:15.302Z,72.10
2022-09-10T23:23:46.077Z,72.23
2022-09-10T23:26:16.381Z,72.24
2022-09-10T23:28:45.892Z,71.64
2022-09-10T23:31:16.392Z,71.99
2022-09-10T23:33:46.219Z,71.79
2022-09-10T23:36:14.742Z,71.95
2022-09-10T23:38:43.758Z,72.59
2022-09-10T23:41:12.821Z,73.02
2022-09-10T23:43:41.330Z,73.27
2022-09-10T23:46:11.304Z,73.01
2022-09-10T23:48:41.304Z,72.86
2022-09-10T23:51:10.984Z,72.00
2022-09-10T23:53:39.775Z,72.37
2022-09-10T23:56:08.542Z,72.08
2022-09-10T23:58:36.232Z,72.67
